createdAt,value
2018-10-18T00:01:29.680Z,99.90
2018-10-18T00:03:58.089Z,99.90
2018-10-18T00:06:26.348Z,99.90
2018-10-18T00:08:54.661Z,99.90
2018-10-18T00:11:23.081Z,99.90
2018-10-18T00:13:51.362Z,99.90
2018-10-18T00:16:20.346Z,99.90
2018-10-18T00:18:48.612Z,99.90
2018-10-18T00:21:17.000Z,99.90
2018-10-18T00:23:45.340Z,99.90
2018-10-18T00:26:13.630Z,99.90
2018-10-18T00:28:42.129Z,99.90
2018-10-18T00:31:10.511Z,99.90
2018-10-18T00:33:38.759Z,99.90
2018-10-18T00:36:07.049Z,99.90
2018-10-18T00:38:35.780Z,99.90
2018-10-18T00:41:04.240Z,99.90
2018-10-18T00:43:32.502Z,99.90
2018-10-18T00:46:01.025Z,99.90
2018-10-18T00:48:29.321Z,99.90
2018-10-18T00:50:57.661Z,99.90
2018-10-18T00:53:26.263Z,99.90
2018-10-18T00:55:54.551Z,99.90
2018-10-18T00:58:23.139Z,99.90
2018-10-18T01:00:51.424Z,99.90
2018-10-18T01:03:19.820Z,99.90
2018-10-18T01:05:48.431Z,99.90
2018-10-18T01:08:17.057Z,99.90
2018-10-18T01:10:45.815Z,99.90
2018-10-18T01:13:14.516Z,99.90
2018-10-18T01:15:42.812Z,99.90
2018-10-18T01:18:11.404Z,99.90
2018-10-18T01:20:39.876Z,99.90
2018-10-18T01:23:09.050Z,99.90
2018-10-18T01:25:37.618Z,99.90
2018-10-18T01:28:05.879Z,99.90
2018-10-18T01:30:34.527Z,99.90
2018-10-18T01:33:03.044Z,99.90
2018-10-18T01:35:31.292Z,99.90
2018-10-18T01:37:59.630Z,99.90
2018-10-18T01:40:28.033Z,99.90
2018-10-18T01:42:56.576Z,99.90
2018-10-18T01:45:24.927Z,99.90
2018-10-18T01:47:53.341Z,99.90
2018-10-18T01:50:22.182Z,99.90
2018-10-18T01:52:50.768Z,99.90
2018-10-18T01:55:19.016Z,99.90
2018-10-18T01:57:47.264Z,99.90
2018-10-18T02:00:15.956Z,99.90
2018-10-18T02:02:44.638Z,99.90
2018-10-18T02:05:12.938Z,99.90
2018-10-18T02:07:41.339Z,99.90
2018-10-18T02:10:10.142Z,99.90
2018-10-18T02:12:38.672Z,99.90
2018-10-18T02:15:09.696Z,99.90
2018-10-18T02:17:38.165Z,99.90
2018-10-18T02:20:07.281Z,99.90
2018-10-18T02:22:36.071Z,99.90
2018-10-18T02:25:04.782Z,99.90
2018-10-18T02:27:33.155Z,99.90
2018-10-18T02:30:01.644Z,99.90
2018-10-18T02:32:30.557Z,99.90
2018-10-18T02:34:58.965Z,99.90
2018-10-18T02:37:27.748Z,99.90
2018-10-18T02:39:55.999Z,99.90
2018-10-18T02:42:24.247Z,99.90
2018-10-18T02:44:52.956Z,99.90
2018-10-18T02:47:21.215Z,99.90
2018-10-18T02:49:50.084Z,99.90
2018-10-18T02:52:18.489Z,99.90
2018-10-18T02:54:46.819Z,99.90
2018-10-18T02:57:15.067Z,99.90
2018-10-18T02:59:43.484Z,99.90
2018-10-18T03:02:11.747Z,99.90
2018-10-18T03:04:40.040Z,99.90
2018-10-18T03:07:08.663Z,99.90
2018-10-18T03:09:37.960Z,99.90
2018-10-18T03:12:06.343Z,99.90
2018-10-18T03:14:34.911Z,99.90
2018-10-18T03:17:03.454Z,99.90
2018-10-18T03:19:32.078Z,99.90
2018-10-18T03:22:00.454Z,99.90
2018-10-18T03:24:28.993Z,99.90
2018-10-18T03:26:57.595Z,99.90
2018-10-18T03:29:26.464Z,99.90
2018-10-18T03:31:54.715Z,99.90
2018-10-18T03:34:22.991Z,99.90
2018-10-18T03:36:51.678Z,99.90
2018-10-18T03:39:20.408Z,99.90
2018-10-18T03:41:48.664Z,99.90
2018-10-18T03:44:17.286Z,99.90
2018-10-18T03:46:45.815Z,99.90
2018-10-18T03:49:14.089Z,99.90
2018-10-18T03:51:42.524Z,99.90
2018-10-18T03:54:11.043Z,99.90
2018-10-18T03:56:39.656Z,99.90
2018-10-18T03:59:08.340Z,99.90
2018-10-18T04:01:36.922Z,99.90
2018-10-18T04:04:05.393Z,99.90
2018-10-18T04:06:34.633Z,99.90
2018-10-18T04:09:03.043Z,99.90
2018-10-18T04:11:31.420Z,99.90
2018-10-18T04:13:59.944Z,99.90
2018-10-18T04:16:29.580Z,99.90
2018-10-18T04:18:57.853Z,99.90
2018-10-18T04:21:26.112Z,99.90
2018-10-18T04:23:55.197Z,99.90
2018-10-18T04:26:23.983Z,99.90
2018-10-18T04:28:52.559Z,99.90
2018-10-18T04:31:21.020Z,99.90
2018-10-18T04:33:49.661Z,99.90
2018-10-18T04:36:18.249Z,99.90
2018-10-18T04:38:46.579Z,99.90
2018-10-18T04:41:15.139Z,99.90
2018-10-18T04:43:43.711Z,99.90
2018-10-18T04:46:11.999Z,99.90
2018-10-18T04:48:40.294Z,99.90
2018-10-18T04:51:08.783Z,99.90
2018-10-18T04:53:37.075Z,99.90
2018-10-18T04:56:05.630Z,99.90
2018-10-18T04:58:33.917Z,99.90
2018-10-18T05:01:02.379Z,99.90
2018-10-18T05:03:30.803Z,99.90
2018-10-18T05:06:00.749Z,99.90
2018-10-18T05:08:29.419Z,99.90
2018-10-18T05:10:57.683Z,99.90
2018-10-18T05:13:26.095Z,99.90
2018-10-18T05:15:54.648Z,99.90
2018-10-18T05:18:23.238Z,99.90
2018-10-18T05:20:51.567Z,99.90
2018-10-18T05:23:19.835Z,99.90
2018-10-18T05:25:48.899Z,99.90
2018-10-18T05:28:18.000Z,99.90
2018-10-18T05:30:46.596Z,99.90
2018-10-18T05:33:14.848Z,99.90
2018-10-18T05:35:43.433Z,99.90
2018-10-18T05:38:12.039Z,99.90
2018-10-18T05:40:40.479Z,99.90
2018-10-18T05:43:08.833Z,99.90
2018-10-18T05:45:37.568Z,99.90
2018-10-18T05:48:06.285Z,99.90
2018-10-18T05:50:34.797Z,99.90
2018-10-18T05:53:03.128Z,99.90
2018-10-18T05:55:31.912Z,99.90
2018-10-18T05:58:00.669Z,99.90
2018-10-18T06:00:29.649Z,99.90
2018-10-18T06:02:58.057Z,99.90
2018-10-18T06:05:26.741Z,99.90
2018-10-18T06:07:55.490Z,99.90
2018-10-18T06:10:35.216Z,99.90
2018-10-18T06:13:04.384Z,99.90
2018-10-18T06:15:33.312Z,99.90
2018-10-18T06:18:02.189Z,99.90
2018-10-18T06:20:30.853Z,99.90
2018-10-18T06:22:59.331Z,99.90
2018-10-18T06:25:27.803Z,99.90
2018-10-18T06:27:56.434Z,99.90
2018-10-18T06:30:24.838Z,99.90
2018-10-18T06:32:53.540Z,99.90
2018-10-18T06:35:22.105Z,99.90
2018-10-18T06:37:50.777Z,99.90
2018-10-18T06:40:19.469Z,99.90
2018-10-18T06:42:47.951Z,99.90
2018-10-18T06:45:17.606Z,99.90
2018-10-18T06:47:46.463Z,99.90
2018-10-18T06:50:18.251Z,99.90
2018-10-18T06:52:46.745Z,99.90
2018-10-18T06:55:15.338Z,99.90
2018-10-18T06:57:44.376Z,99.90
2018-10-18T07:00:17.911Z,99.90
2018-10-18T07:02:46.737Z,99.90
2018-10-18T07:05:15.842Z,99.90
2018-10-18T07:07:45.062Z,99.90
2018-10-18T07:10:13.918Z,99.90
2018-10-18T07:12:42.704Z,99.90
2018-10-18T07:15:13.660Z,99.90
2018-10-18T07:17:42.809Z,99.90
2018-10-18T07:20:11.981Z,99.90
2018-10-18T07:22:41.028Z,99.90
2018-10-18T07:25:12.086Z,99.90
2018-10-18T07:27:41.293Z,99.90
2018-10-18T07:30:11.621Z,99.90
2018-10-18T07:32:41.004Z,99.90
2018-10-18T07:35:10.858Z,99.90
2018-10-18T07:37:39.826Z,99.90
2018-10-18T07:40:10.764Z,99.90
2018-10-18T07:42:39.317Z,99.90
2018-10-18T07:45:08.808Z,99.90
2018-10-18T07:47:37.436Z,99.90
2018-10-18T07:50:06.499Z,99.90
2018-10-18T07:52:35.271Z,99.90
2018-10-18T07:55:04.193Z,99.90
2018-10-18T07:57:32.857Z,99.90
2018-10-18T08:00:01.410Z,99.90
2018-10-18T08:02:30.618Z,99.90
2018-10-18T08:04:59.307Z,99.90
2018-10-18T08:07:27.744Z,99.90
2018-10-18T08:09:56.512Z,99.90
2018-10-18T08:12:25.277Z,99.90
2018-10-18T08:14:53.683Z,99.90
2018-10-18T08:17:22.369Z,99.90
2018-10-18T08:19:51.240Z,99.90
2018-10-18T08:22:19.657Z,99.90
2018-10-18T08:24:48.259Z,99.90
2018-10-18T08:27:16.992Z,99.90
2018-10-18T08:29:45.658Z,99.90
2018-10-18T08:32:15.004Z,99.90
2018-10-18T08:34:43.572Z,99.90
2018-10-18T08:37:12.144Z,99.90
2018-10-18T08:39:40.691Z,99.90
2018-10-18T08:42:09.065Z,99.90
2018-10-18T08:44:37.544Z,99.90
2018-10-18T08:47:08.456Z,99.90
2018-10-18T08:49:37.286Z,99.90
2018-10-18T08:52:06.173Z,99.90
2018-10-18T08:54:34.673Z,99.90
2018-10-18T08:57:03.466Z,99.90
2018-10-18T08:59:32.528Z,99.90
2018-10-18T09:02:01.520Z,99.90
2018-10-18T09:04:29.894Z,99.90
2018-10-18T09:06:58.617Z,99.90
2018-10-18T09:09:27.457Z,99.90
2018-10-18T09:11:55.857Z,99.90
2018-10-18T09:14:24.401Z,99.90
2018-10-18T09:16:53.359Z,99.90
2018-10-18T09:19:21.782Z,99.30
2018-10-18T09:21:50.496Z,98.20
2018-10-18T09:24:19.256Z,97.50
2018-10-18T09:26:47.755Z,96.60
2018-10-18T09:29:16.448Z,95.40
2018-10-18T09:31:45.229Z,96.00
2018-10-18T09:34:13.656Z,95.00
2018-10-18T09:36:42.382Z,93.80
2018-10-18T09:39:10.802Z,94.00
2018-10-18T09:41:39.979Z,93.80
2018-10-18T09:44:08.638Z,94.60
2018-10-18T09:46:37.806Z,93.20
2018-10-18T09:49:06.565Z,93.40
2018-10-18T09:51:35.115Z,90.90
2018-10-18T09:54:04.042Z,92.60
2018-10-18T09:56:33.102Z,93.40
2018-10-18T09:59:01.792Z,93.10
2018-10-18T10:01:35.769Z,92.70
2018-10-18T10:04:04.430Z,93.30
2018-10-18T10:06:32.991Z,93.00
2018-10-18T10:09:01.648Z,92.80
2018-10-18T10:11:30.038Z,92.40
2018-10-18T10:13:58.644Z,93.20
2018-10-18T10:16:27.036Z,93.00
2018-10-18T10:18:55.661Z,93.50
2018-10-18T10:21:24.557Z,94.80
2018-10-18T10:23:53.552Z,95.30
2018-10-18T10:26:22.246Z,95.90
2018-10-18T10:28:50.620Z,96.30
2018-10-18T10:31:19.237Z,95.80
2018-10-18T10:33:47.796Z,96.60
2018-10-18T10:36:16.668Z,96.70
2018-10-18T10:38:45.148Z,95.90
2018-10-18T10:41:13.833Z,95.80
2018-10-18T10:43:42.564Z,95.20
2018-10-18T10:46:11.297Z,95.70
2018-10-18T10:48:40.273Z,95.90
2018-10-18T10:51:08.820Z,95.40
2018-10-18T10:53:37.509Z,95.30
2018-10-18T10:56:06.154Z,95.40
2018-10-18T10:58:34.743Z,95.40
2018-10-18T11:01:08.507Z,95.90
2018-10-18T11:03:37.562Z,95.30
2018-10-18T11:06:06.336Z,96.10
2018-10-18T11:08:35.565Z,95.20
2018-10-18T11:11:04.105Z,95.60
2018-10-18T11:13:32.798Z,95.20
2018-10-18T11:16:02.535Z,96.00
2018-10-18T11:18:32.408Z,94.90
2018-10-18T11:21:01.988Z,93.20
2018-10-18T11:23:31.048Z,92.80
2018-10-18T11:25:59.465Z,91.10
2018-10-18T11:28:28.411Z,90.30
2018-10-18T11:30:56.793Z,89.80
2018-10-18T11:33:25.466Z,90.00
2018-10-18T11:35:54.083Z,92.30
2018-10-18T11:38:22.929Z,91.60
2018-10-18T11:40:51.388Z,91.90
2018-10-18T11:43:19.830Z,93.20
2018-10-18T11:45:48.552Z,93.30
2018-10-18T11:48:17.152Z,93.50
2018-10-18T11:50:45.859Z,92.80
2018-10-18T11:53:14.534Z,93.20
2018-10-18T11:55:42.920Z,91.60
2018-10-18T11:58:12.345Z,91.90
2018-10-18T12:00:40.817Z,91.50
2018-10-18T12:03:09.386Z,91.60
2018-10-18T12:05:38.497Z,91.50
2018-10-18T12:08:07.371Z,92.30
2018-10-18T12:10:36.118Z,93.20
2018-10-18T12:13:04.517Z,93.20
2018-10-18T12:15:33.905Z,92.80
2018-10-18T12:18:02.321Z,93.70
2018-10-18T12:20:31.010Z,93.50
2018-10-18T12:22:59.521Z,94.10
2018-10-18T12:25:28.040Z,94.80
2018-10-18T12:27:56.862Z,94.90
2018-10-18T12:30:25.500Z,95.20
2018-10-18T12:32:53.897Z,94.60
2018-10-18T12:35:22.575Z,94.60
2018-10-18T12:37:51.181Z,94.40
2018-10-18T12:40:19.573Z,94.40
2018-10-18T12:42:49.852Z,95.40
2018-10-18T12:45:18.229Z,94.80
2018-10-18T12:47:47.006Z,95.10
2018-10-18T12:50:17.212Z,95.30
2018-10-18T12:52:45.749Z,95.60
2018-10-18T12:55:14.173Z,95.70
2018-10-18T12:57:42.907Z,96.10
2018-10-18T13:00:11.974Z,95.30
2018-10-18T13:02:40.569Z,96.00
2018-10-18T13:05:10.087Z,96.00
2018-10-18T13:07:38.763Z,96.10
2018-10-18T13:10:09.093Z,96.20
2018-10-18T13:12:37.693Z,96.70
2018-10-18T13:15:07.677Z,97.00
2018-10-18T13:17:36.253Z,97.10
2018-10-18T13:20:05.555Z,96.30
2018-10-18T13:22:34.100Z,96.30
2018-10-18T13:25:03.091Z,96.40
2018-10-18T13:27:31.761Z,97.30
2018-10-18T13:30:00.217Z,96.90
2018-10-18T13:32:29.506Z,96.70
2018-10-18T13:34:57.881Z,97.40
2018-10-18T13:37:26.538Z,96.50
2018-10-18T13:39:55.149Z,96.70
2018-10-18T13:42:23.635Z,96.50
2018-10-18T13:44:52.076Z,97.60
2018-10-18T13:47:24.095Z,97.30
2018-10-18T13:49:52.710Z,97.50
2018-10-18T13:52:22.132Z,97.30
2018-10-18T13:54:50.564Z,97.10
2018-10-18T13:57:19.436Z,97.60
2018-10-18T14:00:00.770Z,97.80
2018-10-18T14:02:29.525Z,97.40
2018-10-18T14:04:58.208Z,97.20
2018-10-18T14:07:27.166Z,98.50
2018-10-18T14:09:55.604Z,97.60
2018-10-18T14:12:24.072Z,97.60
2018-10-18T14:14:52.581Z,97.40
2018-10-18T14:17:21.524Z,98.70
2018-10-18T14:19:49.985Z,97.60
2018-10-18T14:22:18.663Z,97.60
2018-10-18T14:24:47.060Z,98.60
2018-10-18T14:27:15.446Z,98.00
2018-10-18T14:29:44.021Z,98.50
2018-10-18T14:32:12.433Z,98.50
2018-10-18T14:34:40.972Z,99.30
2018-10-18T14:37:09.382Z,99.20
2018-10-18T14:39:37.780Z,99.30
2018-10-18T14:42:06.391Z,99.60
2018-10-18T14:44:35.139Z,99.10
2018-10-18T14:47:03.788Z,99.00
2018-10-18T14:49:32.352Z,98.80
2018-10-18T14:52:01.019Z,99.40
2018-10-18T14:54:29.596Z,99.30
2018-10-18T14:56:57.993Z,99.70
2018-10-18T14:59:26.610Z,99.70
2018-10-18T15:01:55.011Z,99.10
2018-10-18T15:04:23.799Z,99.90
2018-10-18T15:06:52.616Z,99.80
2018-10-18T15:09:21.269Z,99.50
2018-10-18T15:11:49.940Z,99.60
2018-10-18T15:14:18.890Z,99.80
2018-10-18T15:16:47.486Z,99.80
2018-10-18T15:19:16.236Z,99.70
2018-10-18T15:21:44.853Z,99.90
2018-10-18T15:24:13.224Z,99.50
2018-10-18T15:26:42.006Z,99.90
2018-10-18T15:29:12.292Z,99.90
2018-10-18T15:31:41.065Z,99.90
2018-10-18T15:34:09.720Z,99.90
2018-10-18T15:36:38.142Z,99.90
2018-10-18T15:39:11.198Z,99.90
2018-10-18T15:41:40.600Z,99.90
2018-10-18T15:44:09.885Z,99.90
2018-10-18T15:46:38.658Z,99.90
2018-10-18T15:49:07.744Z,99.90
2018-10-18T15:51:37.128Z,99.90
2018-10-18T15:54:06.726Z,99.90
2018-10-18T15:56:35.956Z,99.90
2018-10-18T15:59:05.142Z,99.90
2018-10-18T16:01:33.989Z,99.90
2018-10-18T16:04:02.650Z,99.90
2018-10-18T16:06:31.711Z,99.90
2018-10-18T16:09:00.468Z,99.90
2018-10-18T16:11:29.139Z,99.90
2018-10-18T16:13:57.780Z,99.90
2018-10-18T16:16:26.309Z,99.90
2018-10-18T16:18:57.129Z,99.90
2018-10-18T16:21:25.808Z,99.90
2018-10-18T16:23:54.196Z,99.90
2018-10-18T16:26:22.982Z,99.90
2018-10-18T16:28:51.498Z,99.90
2018-10-18T16:31:20.224Z,99.90
2018-10-18T16:33:48.808Z,99.90
2018-10-18T16:36:17.615Z,99.90
2018-10-18T16:38:46.305Z,99.90
2018-10-18T16:41:14.884Z,99.90
2018-10-18T16:43:43.554Z,99.90
2018-10-18T16:46:12.210Z,99.90
2018-10-18T16:48:41.070Z,99.90
2018-10-18T16:51:09.465Z,99.90
2018-10-18T16:53:37.861Z,99.90
2018-10-18T16:56:06.754Z,99.90
2018-10-18T16:58:36.056Z,99.90
2018-10-18T17:01:04.780Z,99.90
2018-10-18T17:03:33.290Z,99.90
2018-10-18T17:06:02.018Z,99.90
2018-10-18T17:08:30.663Z,99.90
2018-10-18T17:10:59.118Z,99.90
2018-10-18T17:13:27.580Z,99.90
2018-10-18T17:15:56.023Z,99.90
2018-10-18T17:18:24.949Z,99.90
2018-10-18T17:20:53.771Z,99.90
2018-10-18T17:23:22.532Z,99.90
2018-10-18T17:25:51.125Z,99.90
2018-10-18T17:28:19.532Z,99.90
2018-10-18T17:30:47.950Z,99.90
2018-10-18T17:33:16.632Z,99.90
2018-10-18T17:35:45.255Z,99.90
2018-10-18T17:38:13.701Z,99.90
2018-10-18T17:40:42.569Z,99.90
2018-10-18T17:43:11.077Z,99.90
2018-10-18T17:45:39.450Z,99.90
2018-10-18T17:48:08.280Z,99.90
2018-10-18T17:50:37.801Z,99.90
2018-10-18T17:53:06.573Z,99.90
2018-10-18T17:55:35.090Z,99.90
2018-10-18T17:58:03.619Z,99.90
2018-10-18T18:00:32.389Z,99.90
2018-10-18T18:03:01.183Z,99.90
2018-10-18T18:05:29.613Z,99.90
2018-10-18T18:07:58.393Z,99.90
2018-10-18T18:10:27.083Z,99.90
2018-10-18T18:12:55.634Z,99.90
2018-10-18T18:15:24.434Z,99.90
2018-10-18T18:17:52.903Z,99.90
2018-10-18T18:20:21.328Z,99.90
2018-10-18T18:22:49.785Z,99.90
2018-10-18T18:25:18.392Z,99.90
2018-10-18T18:27:47.181Z,99.90
2018-10-18T18:30:15.809Z,99.90
2018-10-18T18:32:44.447Z,99.90
2018-10-18T18:35:13.093Z,99.90
2018-10-18T18:37:41.747Z,99.90
2018-10-18T18:40:10.716Z,99.90
2018-10-18T18:42:39.796Z,99.90
2018-10-18T18:45:14.709Z,99.90
2018-10-18T18:47:43.196Z,99.90
2018-10-18T18:50:11.672Z,99.90
2018-10-18T18:52:39.986Z,99.90
2018-10-18T18:55:09.664Z,99.90
2018-10-18T18:57:38.457Z,99.90
2018-10-18T19:00:07.985Z,99.90
2018-10-18T19:02:36.800Z,99.90
2018-10-18T19:05:06.736Z,99.90
2018-10-18T19:07:35.164Z,99.90
2018-10-18T19:10:03.728Z,99.90
2018-10-18T19:12:32.300Z,99.90
2018-10-18T19:15:00.778Z,99.90
2018-10-18T19:17:29.314Z,99.90
2018-10-18T19:19:57.921Z,99.90
2018-10-18T19:22:26.255Z,99.90
2018-10-18T19:24:55.335Z,99.90
2018-10-18T19:27:23.744Z,99.90
2018-10-18T19:29:52.572Z,99.90
2018-10-18T19:32:21.493Z,99.90
2018-10-18T19:34:49.957Z,99.90
2018-10-18T19:37:18.547Z,99.90
2018-10-18T19:39:46.867Z,99.90
2018-10-18T19:42:15.156Z,99.90
2018-10-18T19:44:43.849Z,99.90
2018-10-18T19:47:12.780Z,99.90
2018-10-18T19:49:41.336Z,99.90
2018-10-18T19:52:10.083Z,99.90
2018-10-18T19:54:38.401Z,99.90
2018-10-18T19:57:16.517Z,99.90
2018-10-18T19:59:44.912Z,99.90
2018-10-18T20:02:13.680Z,99.90
2018-10-18T20:04:42.154Z,99.90
2018-10-18T20:07:10.932Z,99.90
2018-10-18T20:09:39.273Z,99.90
2018-10-18T20:12:08.101Z,99.90
2018-10-18T20:14:36.621Z,99.90
2018-10-18T20:17:07.036Z,99.90
2018-10-18T20:19:35.712Z,99.90
2018-10-18T20:22:06.505Z,99.90
2018-10-18T20:24:35.029Z,99.90
2018-10-18T20:27:03.831Z,99.90
2018-10-18T20:29:32.125Z,99.90
2018-10-18T20:32:00.952Z,99.90
2018-10-18T20:34:29.239Z,99.90
2018-10-18T20:36:57.784Z,99.90
2018-10-18T20:39:26.081Z,99.90
2018-10-18T20:41:54.348Z,99.90
2018-10-18T20:44:22.735Z,99.90
2018-10-18T20:46:51.857Z,99.90
2018-10-18T20:49:20.224Z,99.90
2018-10-18T20:51:48.988Z,99.90
2018-10-18T20:54:17.429Z,99.90
2018-10-18T20:56:45.879Z,99.90
2018-10-18T20:59:14.325Z,99.90
2018-10-18T21:01:43.444Z,99.90
2018-10-18T21:04:11.724Z,99.90
2018-10-18T21:06:40.860Z,99.90
2018-10-18T21:09:10.461Z,99.90
2018-10-18T21:11:38.973Z,99.90
2018-10-18T21:14:07.581Z,99.90
2018-10-18T21:16:35.864Z,99.90
2018-10-18T21:19:04.536Z,99.90
2018-10-18T21:21:33.927Z,99.90
2018-10-18T21:24:02.212Z,99.90
2018-10-18T21:26:30.843Z,99.90
2018-10-18T21:28:59.149Z,99.90
2018-10-18T21:31:27.956Z,99.90
2018-10-18T21:33:56.398Z,99.90
2018-10-18T21:36:25.290Z,99.90
2018-10-18T21:38:53.704Z,99.90
2018-10-18T21:41:22.144Z,99.90
2018-10-18T21:43:50.400Z,99.90
2018-10-18T21:46:19.040Z,99.90
2018-10-18T21:48:47.442Z,99.90
2018-10-18T21:51:15.931Z,99.90
2018-10-18T21:53:44.386Z,99.90
2018-10-18T21:56:12.965Z,99.90
2018-10-18T21:58:41.803Z,99.90
2018-10-18T22:01:10.192Z,99.90
2018-10-18T22:03:38.528Z,99.90
2018-10-18T22:06:07.148Z,99.90
2018-10-18T22:08:35.792Z,99.90
2018-10-18T22:11:04.863Z,99.90
2018-10-18T22:13:33.358Z,99.90
2018-10-18T22:16:02.256Z,99.90
2018-10-18T22:18:30.863Z,99.90
2018-10-18T22:20:59.427Z,99.90
2018-10-18T22:23:27.903Z,99.90
2018-10-18T22:25:56.451Z,99.90
2018-10-18T22:28:25.056Z,99.90
2018-10-18T22:30:53.411Z,99.90
2018-10-18T22:33:21.692Z,99.90
2018-10-18T22:35:50.082Z,99.90
2018-10-18T22:38:18.644Z,99.90
2018-10-18T22:40:47.264Z,99.90
2018-10-18T22:43:15.777Z,99.90
2018-10-18T22:45:48.305Z,99.90
2018-10-18T22:48:17.068Z,99.90
2018-10-18T22:50:45.620Z,99.90
2018-10-18T22:53:14.324Z,99.90
2018-10-18T22:55:42.917Z,99.90
2018-10-18T22:58:11.187Z,99.90
2018-10-18T23:00:39.468Z,99.90
2018-10-18T23:03:08.985Z,99.90
2018-10-18T23:05:37.664Z,99.90
2018-10-18T23:08:06.310Z,99.90
2018-10-18T23:10:34.853Z,99.90
2018-10-18T23:13:03.828Z,99.90
2018-10-18T23:15:32.249Z,99.90
2018-10-18T23:18:00.605Z,99.90
2018-10-18T23:20:28.947Z,99.90
2018-10-18T23:22:57.640Z,99.90
2018-10-18T23:25:26.389Z,99.90
2018-10-18T23:27:54.676Z,99.90
2018-10-18T23:30:23.240Z,99.90
2018-10-18T23:32:51.854Z,99.90
2018-10-18T23:35:20.343Z,99.90
2018-10-18T23:37:49.036Z,99.90
2018-10-18T23:40:17.633Z,99.90
2018-10-18T23:42:46.227Z,99.90
2018-10-18T23:45:14.829Z,99.90
2018-10-18T23:47:43.594Z,99.90
2018-10-18T23:50:12.133Z,99.90
2018-10-18T23:52:40.527Z,99.90
2018-10-18T23:55:08.791Z,99.90
2018-10-18T23:57:37.368Z,99.90
